To NAV CANADA Home Page Login to a new session Search on AWWS site Disclaimer Vers la page française équivalente Tips FAQ What's new on the site To the Forecasts and Observations / NOTAM section To "File a Flight Plan" website Publications and other links Update of the User's profile FIC Telephone Numbers My Weather Data Folder Route Weather Data Regional Weather Data Local Weather Data To the Forecasts and Observations / NOTAM section
Request Generated 05/17/2021 at 21:59:22 UTC . Weather information available at that time is displayed.


Go to a specific product

Save this request - Inactive

METAR/TAF

OTTAWA/MACDONALD-CARTIER INTL/ON    

METAR CYOW 172100Z 22011G17KT 200V270 15SM SCT050 BKN110 BKN250 24/05 A3017 RMK CU4AC1CI1 SLP218 DENSITY ALT 1300FT=
METAR CYOW 172000Z 20008G19KT 15SM SCT050TCU BKN110 24/04 A3017 RMK TCU3AC3 SLP221 DENSITY ALT 1200FT=
METAR CYOW 171900Z 21011G20KT 170V240 15SM SCT050 BKN100 25/02 A3018 RMK CU3AC3 SLP223 DENSITY ALT 1400FT=

TAF CYOW 172038Z 1721/1818 20008G18KT P6SM FEW050 BKN110
BECMG 1723/1801 22008KT
FM180200 22010KT P6SM BKN080 BKN140
BECMG 1804/1806 28008KT SCT120
RMK NXT FCST BY 180000Z=

OTTAWA/GATINEAU/QC    

METAR CYND 172100Z 25013G20KT 170V260 15SM SCT095 BKN240 26/04 A3015 RMK CU3CI2 SLP211 DENSITY ALT 1300FT=
METAR CYND 172000Z 26014G19KT 200V270 15SM SCT100 BKN240 26/04 A3016 RMK CU4CI2 SLP214 DENSITY ALT 1300FT=
METAR CYND 171900Z 24007G19KT 200V260 15SM FEW090 BKN210 25/00 A3017 RMK CU2CI4 SLP220 DENSITY ALT 1200FT=

TAF CYND 171739Z 1718/1801 19007KT P6SM SCT070 TEMPO 1718/1801 BKN070
BECMG 1718/1720 24010KT
RMK NXT FCST WILL BE ISSUED AT 181245Z=


GRAPHICAL FA CLOUDS & WEATHER FORECASTS
To the Product Selector
Graphical FA gfacn33      

GRAPHICAL FA ICING, TURBULENCE & FREEZING LEVEL FORECASTS
To the Product Selector
Graphical FA gfacn33      

Your time UTC time
Weather data provided by Environment Canada and NAV CANADA